createdAt,value
2019-02-28T00:06:38.118Z,18.35
2019-02-28T00:16:44.064Z,19.60
2019-02-28T00:26:50.874Z,15.70
2019-02-28T00:47:02.645Z,15.68
2019-02-28T00:57:08.639Z,16.05
2019-02-28T01:07:16.300Z,17.40
2019-02-28T01:17:24.029Z,16.00
2019-02-28T01:27:29.505Z,15.53
2019-02-28T01:37:35.393Z,14.20
2019-02-28T01:47:42.614Z,15.95
2019-02-28T01:57:48.445Z,15.10
2019-02-28T02:07:54.442Z,16.07
2019-02-28T02:18:00.266Z,12.60
2019-02-28T02:28:06.244Z,15.13
2019-02-28T02:38:12.115Z,13.00
2019-02-28T02:48:18.187Z,12.07
2019-02-28T02:58:27.809Z,14.20
2019-02-28T03:08:36.384Z,12.25
2019-02-28T03:18:40.340Z,13.28
2019-02-28T03:28:47.211Z,12.73
2019-02-28T03:38:53.198Z,13.65
2019-02-28T03:48:59.480Z,11.40
2019-02-28T03:59:05.421Z,11.05
2019-02-28T04:09:11.293Z,10.98
2019-02-28T04:29:29.992Z,12.90
2019-02-28T04:44:57.909Z,10.68
2019-02-28T04:55:04.394Z,12.68
2019-02-28T05:05:12.592Z,12.00
2019-02-28T05:15:18.004Z,21.33
2019-02-28T05:25:23.984Z,21.50
2019-02-28T05:35:29.770Z,15.98
2019-02-28T05:45:35.692Z,52.20
2019-02-28T05:55:41.533Z,52.58
2019-02-28T06:05:47.506Z,48.20
2019-02-28T06:25:59.334Z,53.35
2019-02-28T06:36:05.787Z,35.05
2019-02-28T06:46:11.639Z,34.40
2019-02-28T06:56:22.028Z,28.85
2019-02-28T07:06:25.175Z,19.48
2019-02-28T07:16:34.480Z,26.37
2019-02-28T07:26:38.629Z,21.07
2019-02-28T07:36:44.659Z,18.35
2019-02-28T07:46:51.665Z,17.67
2019-02-28T07:56:57.453Z,21.20
2019-02-28T08:07:03.222Z,21.30
2019-02-28T08:17:09.978Z,23.83
2019-02-28T08:27:15.838Z,25.60
2019-02-28T08:37:22.464Z,20.97
2019-02-28T08:47:28.379Z,28.12
2019-02-28T08:57:34.527Z,32.50
2019-02-28T09:07:40.847Z,45.65
2019-02-28T09:37:56.844Z,39.30
2019-02-28T09:48:02.774Z,37.13
2019-02-28T09:58:08.652Z,35.13
2019-02-28T10:08:14.675Z,41.90
2019-02-28T10:18:20.586Z,37.17
2019-02-28T10:28:26.546Z,40.10
2019-02-28T10:38:32.962Z,45.40
2019-02-28T10:48:50.463Z,41.53
2019-02-28T10:58:50.136Z,41.05
2019-02-28T11:08:55.244Z,41.37
2019-02-28T11:19:01.138Z,39.53
2019-02-28T11:29:07.052Z,46.75
2019-02-28T11:49:20.892Z,37.23
2019-02-28T11:59:26.771Z,38.60
2019-02-28T12:09:33.269Z,35.70
2019-02-28T12:19:39.188Z,68.12
2019-02-28T12:29:45.564Z,57.30
2019-02-28T12:39:52.666Z,48.80
2019-02-28T12:49:58.514Z,41.10
2019-02-28T13:00:06.031Z,34.78
2019-02-28T13:20:33.525Z,35.98
2019-02-28T13:30:39.953Z,27.50
2019-02-28T13:40:45.960Z,24.25
2019-02-28T13:50:52.008Z,21.00
2019-02-28T14:00:58.393Z,22.22
2019-02-28T14:21:10.891Z,27.37
2019-02-28T14:31:16.720Z,25.45
2019-02-28T14:41:24.609Z,37.53
2019-02-28T14:51:31.264Z,31.70
2019-02-28T15:01:37.100Z,31.07
2019-02-28T15:11:43.581Z,23.07
2019-02-28T15:21:50.675Z,22.02
2019-02-28T15:31:56.657Z,16.60
2019-02-28T15:42:05.481Z,20.50
2019-02-28T15:52:11.105Z,18.57
2019-02-28T16:02:17.919Z,27.15
2019-02-28T16:12:23.864Z,28.60
2019-02-28T16:22:29.886Z,14.45
2019-02-28T16:32:37.336Z,15.30
2019-02-28T16:42:43.464Z,16.97
2019-02-28T16:52:50.868Z,20.17
2019-02-28T17:02:56.850Z,16.67
2019-02-28T17:13:05.356Z,18.67
2019-02-28T17:23:11.756Z,21.05
2019-02-28T17:33:17.903Z,20.70
2019-02-28T17:53:54.200Z,28.77
2019-02-28T18:04:42.319Z,29.72
2019-02-28T18:15:01.701Z,28.27
2019-02-28T18:25:29.593Z,36.63
2019-02-28T18:35:35.686Z,30.90
2019-02-28T18:45:41.767Z,33.08
2019-02-28T18:55:47.808Z,32.55
2019-02-28T19:05:53.854Z,30.68
2019-02-28T19:16:00.267Z,34.55
2019-02-28T19:26:06.379Z,33.40
2019-02-28T19:36:12.322Z,51.18
2019-02-28T19:46:18.393Z,48.10
2019-02-28T19:56:25.625Z,43.42
2019-02-28T20:06:31.684Z,58.20
2019-02-28T20:16:37.881Z,33.83
2019-02-28T20:26:43.824Z,29.95
2019-02-28T20:36:49.872Z,20.27
2019-02-28T20:46:55.844Z,31.17
2019-02-28T20:57:01.704Z,22.87
2019-02-28T21:07:07.710Z,21.77
2019-02-28T21:17:13.612Z,26.23
2019-02-28T21:27:19.459Z,23.75
2019-02-28T21:37:39.014Z,23.18
2019-02-28T21:47:45.415Z,21.87
2019-02-28T22:07:57.478Z,23.80
2019-02-28T22:28:08.749Z,17.15
2019-02-28T22:38:14.750Z,20.55
2019-02-28T22:48:21.088Z,20.02
2019-02-28T22:58:26.996Z,20.82
2019-02-28T23:08:32.842Z,17.42
2019-02-28T23:18:38.797Z,16.55
2019-02-28T23:28:52.053Z,14.98
2019-02-28T23:38:57.946Z,17.07
2019-02-28T23:49:04.090Z,15.93
2019-02-28T23:59:10.004Z,15.05
